Time;durP1;ratioP1;P1;durP2;ratioP2;P2;SDS_P1;SDS_P2;PMS_P1;PMS_P2;Temp;Humidity;BMP_temperature;BMP_pressure;BME280_temperature;BME280_humidity;BME280_pressure;Samples;Min_cycle;Max_cycle;Signal;HPM_P1;HPM_P2
2022/03/14 00:00:46;;;;;;;0.60;0.60;;;;;;;22.99;9.87;101902.16;5055863;28;20049;-69
2022/03/14 00:03:13;;;;;;;0.60;0.60;;;;;;;22.96;10.02;101908.94;5055966;28;20090;-69
2022/03/14 00:05:39;;;;;;;0.63;0.60;;;;;;;22.95;10.12;101912.72;5055501;28;20100;-70
2022/03/14 00:08:06;;;;;;;0.77;0.77;;;;;;;22.95;9.81;101904.53;5055439;28;20507;-68
2022/03/14 00:10:31;;;;;;;0.50;0.50;;;;;;;22.93;10.01;101909.41;5055322;28;20033;-69
2022/03/14 00:12:58;;;;;;;0.57;0.50;;;;;;;22.95;9.94;101917.34;5055127;28;20035;-69
2022/03/14 00:15:27;;;;;;;0.63;0.63;;;;;;;22.94;10.01;101916.53;5055294;28;20037;-70
2022/03/14 00:17:53;;;;;;;0.63;0.60;;;;;;;22.93;10.04;101920.28;5055350;28;20029;-70
2022/03/14 00:20:19;;;;;;;0.50;0.50;;;;;;;22.95;10.02;101920.88;5055942;28;20047;-69
2022/03/14 00:22:46;;;;;;;0.65;0.65;;;;;;;22.95;10.08;101920.06;5055212;28;20029;-69
2022/03/14 00:25:11;;;;;;;0.60;0.60;;;;;;;22.91;9.86;101916.97;5047095;28;20055;-68
2022/03/14 00:27:37;;;;;;;0.68;0.63;;;;;;;22.95;9.99;101926.34;5054688;28;20103;-70
2022/03/14 00:30:07;;;;;;;0.40;0.40;;;;;;;22.96;10.08;101921.75;5055313;28;20106;-69
2022/03/14 00:32:34;;;;;;;0.60;0.60;;;;;;;22.95;9.99;101922.78;5055569;28;20071;-72
2022/03/14 00:34:59;;;;;;;0.50;0.50;;;;;;;22.95;9.88;101922.78;5054829;28;20102;-72
2022/03/14 00:37:26;;;;;;;0.50;0.50;;;;;;;22.95;9.89;101926.34;5054868;28;20487;-71
2022/03/14 00:39:53;;;;;;;0.50;0.50;;;;;;;22.94;9.87;101927.41;5055068;28;20047;-72
2022/03/14 00:42:20;;;;;;;0.60;0.60;;;;;;;22.94;9.84;101921.97;5055764;28;20028;-71
2022/03/14 00:44:45;;;;;;;0.40;0.40;;;;;;;22.95;10.08;101928.25;5037679;28;20056;-72
2022/03/14 00:47:11;;;;;;;0.60;0.60;;;;;;;22.89;10.03;101916.38;5054934;28;20049;-72
2022/03/14 00:49:37;;;;;;;0.70;0.60;;;;;;;22.84;10.05;101908.91;5053782;28;20494;-72
2022/03/14 00:52:02;;;;;;;0.50;0.50;;;;;;;22.94;9.84;101923.84;5054453;28;20029;-71
2022/03/14 00:54:28;;;;;;;0.50;0.50;;;;;;;22.94;9.90;101921.13;5055315;28;20059;-71
2022/03/14 00:56:53;;;;;;;0.50;0.50;;;;;;;22.92;9.81;101913.19;5054704;28;20025;-72
2022/03/14 00:59:20;;;;;;;0.52;0.52;;;;;;;22.88;9.91;101903.81;5054653;28;20036;-72
2022/03/14 01:01:45;;;;;;;0.60;0.60;;;;;;;22.94;10.07;101921.13;5054450;28;20032;-72
2022/03/14 01:04:11;;;;;;;0.95;0.63;;;;;;;22.93;9.93;101909.41;5045777;28;20021;-72
2022/03/14 01:06:36;;;;;;;0.77;0.70;;;;;;;22.87;9.78;101904.88;5054007;28;20025;-72
2022/03/14 01:09:02;;;;;;;0.50;0.50;;;;;;;22.93;9.94;101919.47;5054326;28;20033;-71
2022/03/14 01:11:28;;;;;;;0.50;0.50;;;;;;;22.94;9.90;101921.97;5054619;28;20056;-71
2022/03/14 01:13:53;;;;;;;0.57;0.50;;;;;;;22.91;9.83;101922.44;5054058;28;20020;-72
2022/03/14 01:16:19;;;;;;;0.55;0.55;;;;;;;22.92;9.97;101924.09;5054280;28;20025;-72
2022/03/14 01:18:44;;;;;;;0.45;0.45;;;;;;;22.93;9.96;101925.75;5053785;28;20025;-72
2022/03/14 01:21:09;;;;;;;0.55;0.50;;;;;;;22.95;9.84;101923.63;5053689;28;20026;-71
2022/03/14 01:23:35;;;;;;;0.50;0.50;;;;;;;22.93;9.84;101916.75;5054013;28;20045;-71
2022/03/14 01:26:00;;;;;;;0.50;0.50;;;;;;;22.93;9.69;101919.47;5053839;28;20032;-72
2022/03/14 01:28:26;;;;;;;0.50;0.50;;;;;;;22.90;9.76;101920.75;5054521;28;20037;-72
2022/03/14 01:30:51;;;;;;;0.60;0.60;;;;;;;22.92;9.77;101929.56;5054123;28;20025;-71
2022/03/14 01:33:16;;;;;;;0.50;0.50;;;;;;;22.92;9.64;101923.25;5054061;28;20029;-72
2022/03/14 01:35:42;;;;;;;0.60;0.60;;;;;;;22.93;9.63;101931.19;5054137;28;20029;-72
2022/03/14 01:38:07;;;;;;;0.50;0.50;;;;;;;22.92;9.71;101928.69;5054178;28;20067;-71
2022/03/14 01:40:33;;;;;;;0.63;0.63;;;;;;;22.92;9.61;101926.84;5036052;28;20464;-71
2022/03/14 01:42:58;;;;;;;0.50;0.50;;;;;;;22.92;9.74;101928.69;5053505;28;20029;-72
2022/03/14 01:45:24;;;;;;;0.40;0.40;;;;;;;22.87;9.55;101922.06;5054047;28;20025;-72
2022/03/14 01:47:50;;;;;;;0.40;0.40;;;;;;;22.92;9.53;101932.28;5053643;28;20029;-71
2022/03/14 01:50:15;;;;;;;0.40;0.40;;;;;;;22.92;9.55;101929.56;5053692;28;20029;-71
2022/03/14 01:52:41;;;;;;;0.60;0.60;;;;;;;22.90;9.84;101923.47;5035631;28;20495;-72
2022/03/14 01:55:07;;;;;;;0.47;0.47;;;;;;;22.91;9.61;101927.06;5053578;28;20029;-71
2022/03/14 01:57:33;;;;;;;0.47;0.47;;;;;;;22.92;9.69;101929.56;5053917;28;20052;-72
2022/03/14 01:59:59;;;;;;;0.50;0.50;;;;;;;22.93;9.61;101931.19;5053460;28;20554;-72
2022/03/14 02:02:24;;;;;;;0.50;0.50;;;;;;;22.90;9.76;101931.66;5053834;28;20460;-71
2022/03/14 02:04:49;;;;;;;0.40;0.40;;;;;;;22.64;9.78;101895.56;5053648;28;20498;-70
2022/03/14 02:07:15;;;;;;;0.50;0.50;;;;;;;22.92;9.60;101931.44;5053567;28;20029;-70
2022/03/14 02:09:40;;;;;;;0.60;0.60;;;;;;;22.92;9.50;101940.47;5053944;28;20033;-69
2022/03/14 02:12:07;;;;;;;0.40;0.40;;;;;;;22.91;9.62;101933.34;5053680;28;20029;-69
2022/03/14 02:14:35;;;;;;;0.50;0.50;;;;;;;22.91;9.62;101932.50;5054638;28;20021;-69
2022/03/14 02:17:00;;;;;;;0.40;0.40;;;;;;;22.91;9.42;101943.41;5054219;28;20460;-69
2022/03/14 02:19:26;;;;;;;0.47;0.47;;;;;;;22.90;9.61;101937.13;5056428;28;20041;-70
2022/03/14 02:21:51;;;;;;;0.50;0.50;;;;;;;22.92;9.48;101936.88;5053843;28;20021;-69
2022/03/14 02:24:17;;;;;;;0.60;0.43;;;;;;;22.85;9.58;101935.09;5054690;28;20044;-69
2022/03/14 02:26:44;;;;;;;0.40;0.40;;;;;;;22.90;9.53;101939.00;5056417;28;20463;-69
2022/03/14 02:29:12;;;;;;;0.30;0.30;;;;;;;22.88;9.61;101950.16;5055936;28;20025;-69
2022/03/14 02:31:37;;;;;;;0.55;0.55;;;;;;;22.90;9.56;101948.00;5056879;28;20024;-70
2022/03/14 02:34:07;;;;;;;0.40;0.40;;;;;;;22.90;9.56;101947.19;5055910;28;20032;-70
2022/03/14 02:36:32;;;;;;;0.50;0.50;;;;;;;22.90;9.47;101948.00;5057185;28;20079;-71
2022/03/14 02:38:58;;;;;;;0.50;0.50;;;;;;;22.91;9.36;101948.88;5058332;28;20033;-71
2022/03/14 02:41:24;;;;;;;0.50;0.50;;;;;;;22.89;9.43;101946.38;5057731;28;20079;-72
2022/03/14 02:43:49;;;;;;;0.57;0.57;;;;;;;22.90;9.24;101948.00;5057148;28;20108;-71
2022/03/14 02:46:15;;;;;;;0.40;0.40;;;;;;;22.88;9.27;101950.97;5060432;28;20032;-72
2022/03/14 02:48:41;;;;;;;0.50;0.50;;;;;;;22.90;9.22;101953.47;5054219;28;20040;-71
2022/03/14 02:51:06;;;;;;;0.60;0.60;;;;;;;22.90;9.17;101952.66;5053904;28;20033;-72
2022/03/14 02:53:31;;;;;;;0.60;0.60;;;;;;;22.90;9.10;101958.91;5053457;28;20025;-72
2022/03/14 02:55:57;;;;;;;0.50;0.50;;;;;;;22.82;9.19;101940.19;5053073;28;20025;-72
2022/03/14 02:58:22;;;;;;;0.63;0.57;;;;;;;22.87;9.24;101943.88;5052826;28;20033;-72
2022/03/14 03:00:50;;;;;;;0.40;0.40;;;;;;;22.89;9.37;101949.09;5052977;28;20033;-72
2022/03/14 03:03:15;;;;;;;0.40;0.40;;;;;;;22.88;9.28;101945.53;5053099;28;20108;-73
2022/03/14 03:05:43;;;;;;;0.50;0.50;;;;;;;22.91;9.35;101940.69;5035527;28;20028;-71
2022/03/14 03:08:09;;;;;;;0.50;0.50;;;;;;;22.87;9.15;101943.06;5053079;28;20129;-71
2022/03/14 03:10:35;;;;;;;0.50;0.50;;;;;;;22.85;9.14;101937.84;5034873;28;20021;-69
2022/03/14 03:13:00;;;;;;;0.43;0.43;;;;;;;22.88;9.30;101944.69;5054817;28;20486;-69
2022/03/14 03:15:26;;;;;;;0.38;0.38;;;;;;;22.88;9.25;101944.69;5056554;28;20051;-69
2022/03/14 03:17:52;;;;;;;0.40;0.40;;;;;;;22.87;9.36;101949.31;5056462;28;20543;-69
2022/03/14 03:20:18;;;;;;;0.47;0.47;;;;;;;22.88;9.33;101950.97;5056974;28;20028;-69
2022/03/14 03:22:43;;;;;;;0.40;0.40;;;;;;;22.87;9.22;101938.44;5056071;28;20029;-69
2022/03/14 03:25:09;;;;;;;0.50;0.50;;;;;;;22.89;9.37;101946.38;5037872;28;20052;-69
2022/03/14 03:27:35;;;;;;;0.50;0.50;;;;;;;22.89;9.17;101946.38;5038832;28;20025;-69
2022/03/14 03:30:00;;;;;;;0.60;0.60;;;;;;;22.89;9.37;101949.09;5056545;28;20025;-69
2022/03/14 03:32:25;;;;;;;0.60;0.60;;;;;;;22.90;9.11;101953.47;5056298;28;20032;-70
2022/03/14 03:34:51;;;;;;;0.40;0.40;;;;;;;22.90;9.21;101948.00;5056097;28;20460;-69
2022/03/14 03:37:17;;;;;;;0.43;0.40;;;;;;;22.91;9.02;101955.13;5055857;28;20114;-69
2022/03/14 03:39:42;;;;;;;0.45;0.45;;;;;;;22.89;9.08;101957.28;5055822;28;20029;-69
2022/03/14 03:42:08;;;;;;;0.45;0.40;;;;;;;22.90;9.20;101948.00;5055504;28;20025;-69
2022/03/14 03:44:34;;;;;;;0.60;0.60;;;;;;;22.88;9.25;101950.16;5055542;28;20052;-70
2022/03/14 03:47:00;;;;;;;0.50;0.50;;;;;;;22.84;9.24;101949.78;5056008;28;20028;-69
2022/03/14 03:49:26;;;;;;;0.47;0.47;;;;;;;22.90;9.28;101950.75;5056268;28;20033;-69
2022/03/14 03:51:51;;;;;;;0.65;0.40;;;;;;;22.90;9.21;101947.19;5055790;28;20025;-69
2022/03/14 03:54:16;;;;;;;0.50;0.47;;;;;;;22.90;9.02;101948.00;5055774;28;20360;-71
2022/03/14 03:56:42;;;;;;;0.50;0.50;;;;;;;22.88;9.04;101950.97;5037864;28;20073;-71
2022/03/14 03:59:07;;;;;;;0.55;0.40;;;;;;;22.85;8.98;101946.00;5055684;28;20036;-72
2022/03/14 04:01:33;;;;;;;0.50;0.50;;;;;;;22.90;9.15;101952.66;5055727;28;20025;-71
2022/03/14 04:03:59;;;;;;;0.40;0.40;;;;;;;22.89;9.01;101954.56;5055617;28;20021;-71
2022/03/14 04:06:30;;;;;;;0.47;0.47;;;;;;;22.89;9.11;101957.28;5055443;28;20099;-72
2022/03/14 04:08:55;;;;;;;0.40;0.40;;;;;;;22.79;9.13;101940.66;5055499;28;20115;-72
2022/03/14 04:11:21;;;;;;;0.50;0.50;;;;;;;22.90;9.15;101958.09;5055896;28;20024;-72
2022/03/14 04:13:48;;;;;;;0.50;0.50;;;;;;;22.93;8.96;101953.00;5055761;28;20025;-71
2022/03/14 04:16:17;;;;;;;0.60;0.50;;;;;;;22.96;9.06;101958.00;5037610;28;20024;-71
2022/03/14 04:18:43;;;;;;;0.47;0.47;;;;;;;22.93;9.18;101946.75;5038019;28;20029;-70
2022/03/14 04:21:08;;;;;;;0.40;0.40;;;;;;;23.03;9.22;101964.19;5055359;28;20028;-72
2022/03/14 04:23:34;;;;;;;0.50;0.50;;;;;;;23.06;9.29;101962.94;5053852;28;20107;-72
2022/03/14 04:25:59;;;;;;;0.50;0.50;;;;;;;23.10;8.95;101971.47;5054979;28;20029;-72
2022/03/14 04:28:25;;;;;;;0.50;0.50;;;;;;;23.12;9.31;101966.63;5055455;28;20420;-69
2022/03/14 04:30:50;;;;;;;0.40;0.40;;;;;;;23.16;9.11;101965.06;5054937;28;20021;-70
2022/03/14 04:33:15;;;;;;;0.50;0.50;;;;;;;23.19;9.05;101970.06;5054447;28;20033;-69
2022/03/14 04:35:41;;;;;;;0.60;0.60;;;;;;;23.21;9.26;101971.47;5055542;28;20051;-69
2022/03/14 04:38:10;;;;;;;0.50;0.50;;;;;;;23.22;9.04;101973.16;5055057;28;20024;-70
2022/03/14 04:40:36;;;;;;;0.70;0.50;;;;;;;23.23;9.14;101974.81;5054367;28;20490;-68
2022/03/14 04:43:04;;;;;;;0.43;0.43;;;;;;;23.28;9.07;101987.75;5054371;28;20495;-69
2022/03/14 04:45:29;;;;;;;0.50;0.50;;;;;;;23.28;8.84;101976.84;5054645;28;20029;-68
2022/03/14 04:47:55;;;;;;;0.60;0.60;;;;;;;23.33;9.03;101974.22;5054817;28;20032;-69
2022/03/14 04:50:20;;;;;;;0.40;0.40;;;;;;;23.37;8.90;101980.91;5055163;28;20029;-69
2022/03/14 04:52:46;;;;;;;0.55;0.55;;;;;;;23.39;8.64;101972.47;5055066;28;20459;-70
2022/03/14 04:55:11;;;;;;;0.40;0.40;;;;;;;23.33;8.92;101963.31;5055144;28;20074;-69
2022/03/14 04:57:37;;;;;;;0.40;0.40;;;;;;;23.39;8.89;101970.56;5054797;28;20028;-70
2022/03/14 05:00:07;;;;;;;0.50;0.50;;;;;;;23.44;8.89;101981.63;5056855;28;20468;-71
2022/03/14 05:02:33;;;;;;;0.50;0.50;;;;;;;23.47;9.09;101982.22;5057778;28;20033;-69
2022/03/14 05:04:59;;;;;;;0.40;0.40;;;;;;;23.50;8.65;101981.75;5056468;28;20048;-70
2022/03/14 05:07:25;;;;;;;0.70;0.60;;;;;;;23.42;8.62;101989.22;5054599;28;20025;-69
2022/03/14 05:09:50;;;;;;;1.75;0.57;;;;;;;23.50;8.84;101988.03;5056126;28;20029;-69
2022/03/14 05:12:16;;;;;;;0.40;0.40;;;;;;;23.48;8.85;101975.69;5054755;28;20037;-69
2022/03/14 05:14:41;;;;;;;0.70;0.60;;;;;;;23.54;8.62;101980.19;5054517;28;20483;-68
2022/03/14 05:17:16;;;;;;;0.40;0.40;;;;;;;23.61;8.88;101986.38;5055415;28;20044;-69
2022/03/14 05:19:41;;;;;;;0.50;0.43;;;;;;;23.65;8.63;101992.22;5054810;28;20021;-70
2022/03/14 05:22:07;;;;;;;0.55;0.52;;;;;;;23.67;8.46;101990.88;5054756;28;20027;-69
2022/03/14 05:24:32;;;;;;;0.63;0.50;;;;;;;23.66;8.76;101989.22;5054297;28;20040;-69
2022/03/14 05:26:58;;;;;;;0.47;0.47;;;;;;;23.68;8.59;101980.78;5054827;28;20028;-69
2022/03/14 05:29:23;;;;;;;0.45;0.45;;;;;;;23.73;8.78;101984.50;5054476;28;20021;-69
2022/03/14 05:31:48;;;;;;;0.52;0.50;;;;;;;23.74;8.51;101980.69;5054945;28;20494;-69
2022/03/14 05:34:14;;;;;;;0.52;0.52;;;;;;;23.76;8.36;101985.91;5054293;28;20482;-69
2022/03/14 05:36:40;;;;;;;0.50;0.50;;;;;;;23.79;8.72;101982.72;5053360;28;20029;-69
2022/03/14 05:39:06;;;;;;;0.40;0.40;;;;;;;23.80;8.67;101979.75;5054009;28;20047;-69
2022/03/14 05:41:31;;;;;;;0.50;0.50;;;;;;;23.76;8.61;101978.53;5053858;28;20020;-69
2022/03/14 05:43:56;;;;;;;0.50;0.50;;;;;;;23.84;8.67;101979.31;5053400;28;20025;-69
2022/03/14 05:46:22;;;;;;;0.40;0.40;;;;;;;23.77;8.47;101968.47;5053559;28;20029;-69
2022/03/14 05:48:47;;;;;;;0.50;0.50;;;;;;;23.88;8.43;101975.84;5053496;28;20466;-69
2022/03/14 05:51:13;;;;;;;0.50;0.50;;;;;;;23.90;8.44;101972.88;5054003;28;20025;-69
2022/03/14 05:53:38;;;;;;;0.60;0.60;;;;;;;23.90;8.46;101972.88;5054501;28;20455;-69
2022/03/14 05:56:04;;;;;;;0.43;0.43;;;;;;;23.91;8.42;101982.75;5053872;28;20021;-70
2022/03/14 05:58:30;;;;;;;0.40;0.40;;;;;;;23.88;8.60;101975.03;5053622;28;20029;-68
2022/03/14 06:00:56;;;;;;;0.50;0.50;;;;;;;23.96;8.58;101983.69;5053947;28;20091;-68
2022/03/14 06:03:21;;;;;;;0.50;0.50;;;;;;;24.02;8.57;101987.34;5054198;28;20033;-68
2022/03/14 06:05:48;;;;;;;0.70;0.60;;;;;;;24.02;8.49;101987.34;5035412;28;20029;-68
2022/03/14 06:08:14;;;;;;;0.65;0.52;;;;;;;24.03;8.57;101985.47;5053187;28;20083;-67
2022/03/14 06:10:39;;;;;;;0.50;0.50;;;;;;;24.08;8.81;101991.88;5053048;28;20037;-68
2022/03/14 06:13:05;;;;;;;0.57;0.55;;;;;;;24.01;8.82;101985.69;5035572;28;20033;-68
2022/03/14 06:15:31;;;;;;;0.50;0.50;;;;;;;24.10;8.64;101989.72;5053450;28;20055;-68
2022/03/14 06:17:56;;;;;;;1.88;0.60;;;;;;;24.14;8.96;101993.63;5053679;28;20486;-69
2022/03/14 06:20:22;;;;;;;0.57;0.57;;;;;;;24.17;8.71;101990.41;5053451;28;20032;-69
2022/03/14 06:22:47;;;;;;;2.83;0.50;;;;;;;24.17;8.64;101990.41;5035040;28;20040;-69
2022/03/14 06:25:13;;;;;;;1.95;0.50;;;;;;;24.21;8.90;102000.88;5053640;28;20045;-68
2022/03/14 06:27:39;;;;;;;1.95;0.63;;;;;;;24.21;8.79;102000.88;5052863;28;20487;-68
2022/03/14 06:30:05;;;;;;;0.63;0.60;;;;;;;24.21;8.89;101996.22;5053208;28;20025;-69
2022/03/14 06:32:35;;;;;;;1.15;0.50;;;;;;;24.24;8.92;101997.66;5053344;28;20025;-69
2022/03/14 06:35:01;;;;;;;0.57;0.50;;;;;;;24.28;8.86;102001.56;5052858;28;20105;-68
2022/03/14 06:37:26;;;;;;;0.50;0.50;;;;;;;24.31;8.81;101995.63;5052680;28;20036;-68
2022/03/14 06:39:52;;;;;;;0.77;0.68;;;;;;;24.33;8.94;102005.22;5053825;28;20079;-68
2022/03/14 06:42:18;;;;;;;1.02;0.80;;;;;;;24.34;9.01;101995.97;5052925;28;20426;-69
2022/03/14 06:44:44;;;;;;;0.63;0.52;;;;;;;24.38;8.77;102007.25;5053045;28;20433;-70
2022/03/14 06:47:11;;;;;;;0.80;0.60;;;;;;;24.42;9.05;102002.94;5053870;28;20033;-70
2022/03/14 06:49:37;;;;;;;0.47;0.47;;;;;;;24.38;8.96;102008.06;5057313;28;20033;-70
2022/03/14 06:52:04;;;;;;;2.22;0.85;;;;;;;24.40;9.23;101999.63;5057049;28;20406;-70
2022/03/14 06:54:29;;;;;;;0.50;0.50;;;;;;;24.45;9.00;102007.13;5039218;28;20021;-68
2022/03/14 06:56:54;;;;;;;0.60;0.60;;;;;;;24.46;9.03;102003.31;5056584;28;20024;-70
2022/03/14 06:59:20;;;;;;;0.68;0.60;;;;;;;24.47;8.96;102005.78;5057292;28;20471;-69
2022/03/14 07:01:45;;;;;;;0.77;0.70;;;;;;;24.45;8.94;102005.19;5056647;28;20033;-70
2022/03/14 07:04:11;;;;;;;0.80;0.70;;;;;;;24.50;9.13;102004.50;5056449;28;20035;-69
2022/03/14 07:06:37;;;;;;;3.20;0.68;;;;;;;24.48;9.17;102010.19;5056314;28;20029;-70
2022/03/14 07:09:02;;;;;;;1.60;1.05;;;;;;;24.38;9.19;102007.25;5056113;28;20036;-69
2022/03/14 07:11:28;;;;;;;2.33;0.90;;;;;;;24.44;9.22;102010.91;5056948;28;20025;-71
2022/03/14 07:13:53;;;;;;;1.85;1.08;;;;;;;24.41;9.11;102006.78;5055896;28;20514;-69
2022/03/14 07:16:20;;;;;;;1.98;0.90;;;;;;;24.40;9.50;102009.75;5056179;28;20106;-69
2022/03/14 07:18:46;;;;;;;1.60;1.20;;;;;;;24.53;9.68;101998.53;5056359;28;20171;-70
2022/03/14 07:21:11;;;;;;;2.40;1.10;;;;;;;24.54;9.28;101990.13;5056427;28;20071;-70
2022/03/14 07:23:37;;;;;;;2.17;1.05;;;;;;;24.61;9.25;101994.63;5056037;28;20041;-69
2022/03/14 07:26:02;;;;;;;2.15;1.10;;;;;;;24.63;9.43;101997.94;5056868;28;20033;-69
2022/03/14 07:28:28;;;;;;;1.58;1.10;;;;;;;24.64;9.40;101999.59;5057843;28;20037;-70
2022/03/14 07:30:54;;;;;;;1.77;1.17;;;;;;;24.63;8.97;101992.47;5056999;28;20036;-70
2022/03/14 07:33:20;;;;;;;2.22;1.10;;;;;;;24.65;9.35;102001.28;5055856;28;20035;-70
2022/03/14 07:35:45;;;;;;;1.63;1.02;;;;;;;24.62;8.97;102007.22;5055518;28;20025;-69
2022/03/14 07:38:11;;;;;;;1.65;1.33;;;;;;;24.75;9.27;101996.00;5055634;28;20028;-69
2022/03/14 07:40:36;;;;;;;2.08;0.95;;;;;;;24.78;9.16;101997.41;5055792;28;20029;-71
2022/03/14 07:43:02;;;;;;;1.20;0.82;;;;;;;24.77;9.10;101993.00;5056274;28;20021;-69
2022/03/14 07:45:28;;;;;;;1.40;0.80;;;;;;;24.77;9.12;101993.84;5055845;28;20024;-70
2022/03/14 07:47:54;;;;;;;1.25;0.90;;;;;;;24.74;9.38;101988.88;5055953;28;20082;-70
2022/03/14 07:50:19;;;;;;;1.20;0.93;;;;;;;24.76;9.34;101986.72;5055682;28;20104;-70
2022/03/14 07:52:45;;;;;;;1.13;0.80;;;;;;;24.82;9.25;101985.75;5038835;28;20463;-70
2022/03/14 07:55:11;;;;;;;1.67;1.00;;;;;;;24.85;9.04;101990.75;5055521;28;20095;-70
2022/03/14 07:57:37;;;;;;;2.83;1.00;;;;;;;24.91;8.87;101986.19;5055649;28;20120;-70
2022/03/14 08:00:04;;;;;;;1.48;0.90;;;;;;;24.91;8.99;101994.38;5055566;28;20025;-70
2022/03/14 08:02:30;;;;;;;1.58;0.88;;;;;;;24.89;8.94;101991.06;5055824;28;20021;-69
2022/03/14 08:04:55;;;;;;;1.77;0.98;;;;;;;24.93;9.19;101993.06;5056100;28;20075;-69
2022/03/14 08:07:20;;;;;;;1.25;0.90;;;;;;;24.96;9.16;101990.91;5056671;28;20028;-70
2022/03/14 08:09:48;;;;;;;2.97;0.80;;;;;;;25.00;9.10;101994.81;5057249;28;20035;-69
2022/03/14 08:12:13;;;;;;;1.00;0.70;;;;;;;25.04;8.87;101999.56;5039208;28;20029;-69
2022/03/14 08:14:39;;;;;;;1.75;1.00;;;;;;;25.05;9.23;101994.91;5056743;28;20120;-69
2022/03/14 08:17:04;;;;;;;1.20;0.90;;;;;;;25.01;8.93;101991.00;5056947;28;20079;-69
2022/03/14 08:19:29;;;;;;;1.10;0.75;;;;;;;25.06;8.95;102002.03;5056363;28;20379;-70
2022/03/14 08:21:57;;;;;;;0.50;0.50;;;;;;;25.08;9.11;102003.44;5055531;28;20495;-69
2022/03/14 08:24:23;;;;;;;0.60;0.60;;;;;;;25.08;9.30;101999.91;5056023;28;20055;-69
2022/03/14 08:26:48;;;;;;;0.95;0.65;;;;;;;25.10;9.06;101998.56;5038459;28;20029;-68
2022/03/14 08:29:14;;;;;;;1.08;0.75;;;;;;;25.11;9.23;101993.91;5037924;28;20033;-68
2022/03/14 08:31:39;;;;;;;1.20;0.85;;;;;;;25.15;9.31;101995.09;5039026;28;20032;-68
2022/03/14 08:34:06;;;;;;;0.60;0.60;;;;;;;25.07;9.62;101990.03;5038092;28;20036;-69
2022/03/14 08:36:33;;;;;;;0.93;0.60;;;;;;;25.14;9.50;101992.59;5037888;28;20597;-69
2022/03/14 08:38:58;;;;;;;1.02;0.77;;;;;;;25.15;9.15;101989.63;5055533;28;20486;-68
2022/03/14 08:41:23;;;;;;;1.00;0.70;;;;;;;25.16;9.20;101990.44;5037682;28;20025;-69
2022/03/14 08:43:49;;;;;;;0.63;0.60;;;;;;;25.16;9.18;101994.00;5055453;28;20029;-69
2022/03/14 08:46:17;;;;;;;1.00;0.88;;;;;;;25.21;9.23;101977.69;5055170;28;20468;-68
2022/03/14 08:48:42;;;;;;;0.93;0.55;;;;;;;25.19;9.39;101989.97;5055227;28;20116;-69
2022/03/14 08:51:08;;;;;;;0.88;0.73;;;;;;;25.25;9.07;101981.63;5054115;28;20071;-68
2022/03/14 08:53:34;;;;;;;1.08;0.68;;;;;;;25.22;9.21;101984.00;5037529;28;20064;-68
2022/03/14 08:56:02;;;;;;;1.48;0.60;;;;;;;25.26;9.41;101988.75;5053703;28;20029;-69
2022/03/14 08:58:29;;;;;;;1.75;0.80;;;;;;;25.22;9.19;101982.09;5054746;28;20044;-69
2022/03/14 09:00:55;;;;;;;0.77;0.63;;;;;;;25.32;9.28;101999.78;5054921;28;20020;-69
2022/03/14 09:03:21;;;;;;;0.80;0.70;;;;;;;25.30;9.45;102003.59;5054582;28;20028;-67
2022/03/14 09:05:46;;;;;;;1.33;0.80;;;;;;;25.10;9.43;101995.81;5054711;28;20463;-68
2022/03/14 09:08:12;;;;;;;0.90;0.70;;;;;;;25.30;9.45;102000.88;5054377;28;20035;-68
2022/03/14 09:10:37;;;;;;;2.30;1.15;;;;;;;25.25;9.48;101983.47;5053677;28;20032;-67
2022/03/14 09:13:03;;;;;;;3.50;0.90;;;;;;;25.40;9.51;101996.63;5054920;28;20036;-67
2022/03/14 09:15:29;;;;;;;1.13;0.80;;;;;;;25.41;9.51;101998.31;5055332;28;20028;-70
2022/03/14 09:17:59;;;;;;;1.05;0.90;;;;;;;25.40;9.32;102002.09;5055393;28;20069;-68
2022/03/14 09:20:26;;;;;;;1.98;0.80;;;;;;;25.33;9.14;102002.25;5055182;28;20021;-68
2022/03/14 09:22:51;;;;;;;1.33;0.80;;;;;;;25.40;9.54;101991.97;5054522;28;20432;-69
2022/03/14 09:25:17;;;;;;;1.10;0.90;;;;;;;25.44;9.09;101995.03;5054225;28;20047;-68
2022/03/14 09:27:42;;;;;;;1.38;0.60;;;;;;;25.41;8.94;101998.31;5054460;28;20048;-68
2022/03/14 09:30:10;;;;;;;0.88;0.60;;;;;;;25.42;8.94;101999.94;5054161;28;20052;-68
2022/03/14 09:32:36;;;;;;;1.20;0.90;;;;;;;25.47;8.85;102003.63;5054101;28;20124;-68
2022/03/14 09:35:01;;;;;;;1.20;0.80;;;;;;;25.51;8.76;102009.41;5054620;28;20233;-69
2022/03/14 09:37:27;;;;;;;0.70;0.60;;;;;;;25.46;8.85;102006.59;5036850;28;20422;-68
2022/03/14 09:39:53;;;;;;;0.77;0.50;;;;;;;25.57;8.83;102008.41;5054700;28;20086;-68
2022/03/14 09:42:20;;;;;;;2.75;0.65;;;;;;;25.55;8.56;102005.09;5054542;28;20025;-68
2022/03/14 09:44:48;;;;;;;1.13;0.70;;;;;;;25.58;8.52;102009.25;5037107;28;20103;-69
2022/03/14 09:47:14;;;;;;;2.67;0.57;;;;;;;25.57;8.43;102005.66;5055138;28;20104;-68
2022/03/14 09:49:39;;;;;;;0.70;0.55;;;;;;;25.59;8.48;102008.16;5019407;28;20415;-68
2022/03/14 09:52:06;;;;;;;0.70;0.68;;;;;;;25.59;8.68;102005.41;5019051;28;20424;-68
2022/03/14 09:54:31;;;;;;;0.73;0.70;;;;;;;25.54;8.62;102006.16;5052883;28;20470;-68
2022/03/14 09:56:57;;;;;;;0.98;0.65;;;;;;;25.64;8.26;102013.72;5035542;28;20033;-69
2022/03/14 09:59:22;;;;;;;0.40;0.40;;;;;;;25.64;8.25;102009.06;5035929;28;20033;-69
2022/03/14 10:01:48;;;;;;;0.40;0.40;;;;;;;25.61;8.23;102011.47;5053738;28;20364;-70
2022/03/14 10:04:13;;;;;;;1.77;0.50;;;;;;;25.66;8.36;102006.94;5053835;28;20491;-70
2022/03/14 10:06:40;;;;;;;0.45;0.45;;;;;;;25.66;8.26;102006.06;5054162;28;20040;-69
2022/03/14 10:09:05;;;;;;;0.35;0.35;;;;;;;25.67;8.45;102008.56;5054031;28;20029;-68
2022/03/14 10:11:31;;;;;;;0.50;0.50;;;;;;;25.71;8.27;102002.59;5054040;28;20365;-68
2022/03/14 10:13:56;;;;;;;0.98;0.50;;;;;;;25.58;8.39;102010.06;5054224;28;20067;-69
2022/03/14 10:16:22;;;;;;;0.63;0.55;;;;;;;25.66;8.32;102006.06;5054034;28;20032;-68
2022/03/14 10:18:56;;;;;;;0.40;0.40;;;;;;;25.68;8.37;102002.03;5053449;28;20021;-68
2022/03/14 10:21:33;;;;;;;0.40;0.40;;;;;;;25.62;8.43;102005.75;5036986;28;20069;-68
2022/03/14 10:23:59;;;;;;;0.70;0.40;;;;;;;25.63;8.22;102001.09;5057105;28;20045;-70
2022/03/14 10:26:25;;;;;;;2.17;0.60;;;;;;;25.70;8.79;102006.41;5058032;28;20021;-69
2022/03/14 10:28:54;;;;;;;0.60;0.50;;;;;;;25.62;8.40;102000.28;5057522;28;20486;-69
2022/03/14 10:31:32;;;;;;;1.98;0.60;;;;;;;25.67;8.52;101997.63;5057897;28;20025;-70
2022/03/14 10:34:21;;;;;;;0.57;0.57;;;;;;;25.53;7.91;101990.84;5058193;28;20037;-69
2022/03/14 10:36:51;;;;;;;0.95;0.63;;;;;;;25.64;8.17;101994.56;5057803;28;20052;-69
2022/03/14 10:39:20;;;;;;;0.57;0.50;;;;;;;25.67;7.84;101992.16;5056305;28;20098;-68
2022/03/14 10:41:48;;;;;;;0.75;0.52;;;;;;;25.68;8.06;101995.69;5057543;28;20025;-69
2022/03/14 10:44:25;;;;;;;0.88;0.68;;;;;;;25.71;8.07;101992.47;5059365;28;20017;-68
2022/03/14 10:46:50;;;;;;;2.75;0.80;;;;;;;25.63;8.03;101999.22;5059065;28;20053;-69
2022/03/14 10:49:17;;;;;;;2.90;0.90;;;;;;;25.62;8.09;101980.28;5058904;28;20037;-68
2022/03/14 10:52:02;;;;;;;3.83;1.50;;;;;;;25.66;8.20;101987.75;5058074;28;20036;-68
2022/03/14 10:54:28;;;;;;;3.25;1.70;;;;;;;25.71;7.87;101980.69;5039370;28;20486;-67
2022/03/14 10:57:22;;;;;;;4.53;1.48;;;;;;;25.77;8.07;101985.19;5039783;28;20109;-69
2022/03/14 10:59:51;;;;;;;2.05;1.15;;;;;;;25.61;7.98;101981.34;5037264;28;20043;-69
2022/03/14 11:02:22;;;;;;;3.47;1.17;;;;;;;25.72;7.76;101982.38;5056712;28;20033;-67
2022/03/14 11:04:58;;;;;;;2.55;0.90;;;;;;;25.70;7.99;101979.03;5039690;28;20065;-68
2022/03/14 11:07:25;;;;;;;1.35;0.73;;;;;;;25.71;7.79;101978.78;5057208;28;20111;-69
2022/03/14 11:09:56;;;;;;;1.23;0.60;;;;;;;25.78;7.66;101978.59;5056783;28;20091;-68
2022/03/14 11:12:23;;;;;;;2.17;1.10;;;;;;;25.77;7.76;101985.19;5055712;28;20112;-70
2022/03/14 11:14:52;;;;;;;1.80;0.85;;;;;;;25.63;7.57;101980.03;5055979;28;20344;-68
2022/03/14 11:17:21;;;;;;;3.25;1.20;;;;;;;25.74;8.32;101971.97;5055978;28;20044;-67
2022/03/14 11:19:46;;;;;;;3.47;1.70;;;;;;;25.64;8.07;101981.69;5055926;28;20467;-68
2022/03/14 11:22:12;;;;;;;28.95;6.32;;;;;;;25.57;7.98;101986.50;5055692;28;20047;-68
2022/03/14 11:24:48;;;;;;;3.33;1.40;;;;;;;25.67;7.93;101978.44;5055510;28;20107;-71
2022/03/14 11:27:17;;;;;;;3.60;1.60;;;;;;;25.76;8.12;101969.81;5055506;28;20091;-68
2022/03/14 11:29:43;;;;;;;4.55;1.75;;;;;;;25.80;8.08;101984.66;5038526;28;20177;-69